Time;durP1;ratioP1;P1;durP2;ratioP2;P2;SDS_P1;SDS_P2;PMS_P1;PMS_P2;Temp;Humidity;BMP_temperature;BMP_pressure;BME280_temperature;BME280_humidity;BME280_pressure;Samples;Min_cycle;Max_cycle;Signal;HPM_P1;HPM_P2
2022/04/07 00:01:34;;;;;;;7.68;3.25;;;;;;;13.34;66.47;98443.00;4977053;28;20454;-87
2022/04/07 00:04:01;;;;;;;7.80;3.20;;;;;;;13.34;66.48;98444.84;4970515;28;20504;-89
2022/04/07 00:06:28;;;;;;;4.35;2.72;;;;;;;13.33;66.64;98440.50;4951871;28;20077;-89
2022/04/07 00:08:54;;;;;;;4.80;2.85;;;;;;;13.31;66.53;98432.72;4976286;28;20043;-89
2022/04/07 00:11:21;;;;;;;4.78;2.80;;;;;;;13.30;66.78;98431.03;4989778;28;20046;-89
2022/04/07 00:13:48;;;;;;;3.50;2.35;;;;;;;13.29;66.55;98421.41;4973677;28;20053;-90
2022/04/07 00:16:15;;;;;;;6.18;3.20;;;;;;;13.27;66.65;98423.44;4981331;28;20058;-90
2022/04/07 00:18:42;;;;;;;5.60;3.38;;;;;;;13.27;66.69;98428.75;4967134;28;20050;-90
2022/04/07 00:21:12;;;;;;;5.22;3.83;;;;;;;13.27;66.97;98422.59;4965237;28;20418;-89
2022/04/07 00:23:40;;;;;;;5.55;3.10;;;;;;;13.24;66.90;98415.78;4952429;28;20094;-90
2022/04/07 00:26:07;;;;;;;8.20;3.83;;;;;;;13.21;67.00;98411.66;4951256;28;20046;-90
2022/04/07 00:28:34;;;;;;;5.53;3.30;;;;;;;13.21;67.04;98406.31;4943392;28;20061;-89
2022/04/07 00:31:00;;;;;;;4.75;3.15;;;;;;;13.20;67.09;98403.81;4950441;28;20077;-89
2022/04/07 00:33:27;;;;;;;5.72;3.70;;;;;;;13.19;67.25;98403.00;4967092;28;20057;-89
2022/04/07 00:35:54;;;;;;;9.15;4.25;;;;;;;13.18;67.25;98396.03;4942648;28;20057;-89
2022/04/07 00:38:21;;;;;;;7.75;4.50;;;;;;;13.18;67.47;98396.03;4946325;28;20047;-89
2022/04/07 00:40:48;;;;;;;5.93;4.10;;;;;;;13.17;67.16;98380.22;4966017;28;20050;-89
2022/04/07 00:43:34;;;;;;;8.63;3.65;;;;;;;13.04;67.39;98376.38;4970729;28;20065;-90
2022/04/07 00:46:02;;;;;;;9.32;3.90;;;;;;;13.15;66.93;98383.09;4943240;28;20067;-87
2022/04/07 00:48:30;;;;;;;6.63;3.90;;;;;;;13.15;66.97;98371.59;4965553;28;20038;-89
2022/04/07 00:50:57;;;;;;;9.00;3.83;;;;;;;13.12;66.78;98359.47;4976838;28;20049;-89
2022/04/07 00:53:24;;;;;;;6.45;3.85;;;;;;;13.12;66.61;98355.97;4957551;28;20049;-90
2022/04/07 00:55:51;;;;;;;6.30;3.70;;;;;;;13.10;66.73;98363.31;4946587;28;20046;-89
2022/04/07 00:58:22;;;;;;;5.00;2.47;;;;;;;13.04;66.56;98355.06;4952786;28;20059;-90
2022/04/07 01:00:48;;;;;;;4.30;2.83;;;;;;;12.99;66.49;98356.66;4959324;28;20043;-90
2022/04/07 01:03:15;;;;;;;4.18;2.90;;;;;;;13.01;66.04;98338.63;4942437;28;20126;-90
2022/04/07 01:05:42;;;;;;;4.30;2.70;;;;;;;13.02;66.02;98345.59;4963404;28;20103;-90
2022/04/07 01:12:39;;;;;;;4.85;2.50;;;;;;;12.93;65.89;98331.59;4950762;28;20118;-90
2022/04/07 01:15:08;;;;;;;5.97;2.60;;;;;;;12.94;65.70;98319.91;4944109;28;20449;-90
2022/04/07 01:17:35;;;;;;;7.05;2.92;;;;;;;12.95;65.76;98328.72;4930103;28;20426;-86
2022/04/07 01:20:03;;;;;;;3.10;2.10;;;;;;;12.95;65.62;98320.72;4957236;28;20523;-86
2022/04/07 01:22:30;;;;;;;4.10;2.67;;;;;;;12.93;65.11;98320.94;4976849;28;20096;-86
2022/04/07 01:24:57;;;;;;;4.88;2.60;;;;;;;12.92;65.33;98323.78;4976066;28;20493;-86
2022/04/07 01:27:24;;;;;;;4.13;3.03;;;;;;;12.90;65.04;98321.31;4972155;28;20137;-86
2022/04/07 01:29:56;;;;;;;7.28;3.10;;;;;;;12.88;65.20;98317.19;4971053;28;20057;-87
2022/04/07 01:32:40;;;;;;;3.70;2.40;;;;;;;12.75;65.10;98318.69;4948544;28;20046;-86
2022/04/07 01:35:07;;;;;;;7.07;2.28;;;;;;;12.86;64.96;98320.03;4951643;28;20065;-86
2022/04/07 01:37:34;;;;;;;4.35;2.20;;;;;;;12.85;65.01;98320.19;4958625;28;20047;-86
2022/04/07 01:40:03;;;;;;;6.35;2.17;;;;;;;12.83;64.79;98320.41;4972855;28;20046;-85
2022/04/07 01:42:32;;;;;;;4.15;2.25;;;;;;;12.81;64.84;98317.09;4956829;28;20047;-87
2022/04/07 01:45:02;;;;;;;3.92;2.00;;;;;;;12.79;64.80;98319.13;4952936;28;20383;-86
2022/04/07 01:47:31;;;;;;;4.20;2.30;;;;;;;12.77;65.08;98319.31;4981207;28;20051;-86
2022/04/07 01:50:01;;;;;;;5.25;2.35;;;;;;;12.74;65.32;98319.66;4966930;28;20047;-86
2022/04/07 01:52:29;;;;;;;3.65;2.10;;;;;;;12.75;65.34;98304.53;4980421;28;20038;-86
2022/04/07 01:55:01;;;;;;;3.65;1.67;;;;;;;12.74;64.99;98314.34;4967792;28;20051;-86
2022/04/07 01:57:28;;;;;;;5.70;2.10;;;;;;;12.74;65.33;98313.53;4964733;28;20101;-86
2022/04/07 01:59:55;;;;;;;3.97;1.85;;;;;;;12.75;65.26;98313.34;4958486;28;20127;-86
2022/04/07 02:02:22;;;;;;;2.78;1.90;;;;;;;12.74;65.61;98309.03;4965064;28;20131;-86
2022/04/07 02:04:56;;;;;;;3.10;1.90;;;;;;;12.67;65.79;98300.16;4948159;28;20105;-86
2022/04/07 02:07:28;;;;;;;4.80;2.47;;;;;;;12.69;65.40;98302.59;4980089;28;20054;-86
2022/04/07 02:09:59;;;;;;;3.95;2.30;;;;;;;12.67;65.93;98302.81;4991433;28;20465;-86
2022/04/07 02:12:27;;;;;;;1.92;1.70;;;;;;;12.71;65.91;98317.38;4961563;28;20125;-87
2022/04/07 02:14:54;;;;;;;3.47;1.60;;;;;;;12.71;65.37;98301.41;4949902;28;20553;-86
2022/04/07 02:17:22;;;;;;;3.90;1.77;;;;;;;12.72;65.52;98302.22;4938173;28;20055;-86
2022/04/07 02:19:59;;;;;;;3.92;1.40;;;;;;;12.64;65.71;98297.84;4976437;28;20043;-86
2022/04/07 02:22:29;;;;;;;3.85;1.42;;;;;;;12.72;65.35;98294.25;5011684;28;20188;-86
2022/04/07 02:24:56;;;;;;;2.47;1.42;;;;;;;12.75;65.35;98286.72;4927784;28;20521;-86
2022/04/07 02:27:23;;;;;;;2.92;1.17;;;;;;;12.75;65.46;98275.25;4973287;28;20458;-86
2022/04/07 02:29:50;;;;;;;2.67;1.50;;;;;;;12.74;65.18;98279.72;4954310;28;20066;-86
2022/04/07 02:32:16;;;;;;;2.65;1.00;;;;;;;12.74;65.00;98290.38;4946519;28;20049;-86
2022/04/07 02:34:43;;;;;;;1.98;1.40;;;;;;;12.77;65.07;98275.84;4967821;28;20481;-86
2022/04/07 02:37:10;;;;;;;2.30;1.08;;;;;;;12.75;65.38;98276.06;4974294;28;20047;-86
2022/04/07 02:39:37;;;;;;;2.00;1.20;;;;;;;12.76;65.00;98264.38;4966614;28;20131;-86
2022/04/07 02:42:04;;;;;;;3.00;1.45;;;;;;;12.76;65.46;98264.38;4967466;28;20497;-86
2022/04/07 02:44:31;;;;;;;2.00;1.13;;;;;;;12.71;65.29;98264.13;4965643;28;20047;-86
2022/04/07 02:46:58;;;;;;;1.98;1.13;;;;;;;12.74;65.23;98260.25;4966003;28;20140;-85
2022/04/07 02:49:24;;;;;;;1.65;1.20;;;;;;;12.71;65.21;98261.47;4974875;28;20046;-85
2022/04/07 02:51:51;;;;;;;1.67;0.93;;;;;;;12.72;65.20;98265.78;4955259;28;20050;-85
2022/04/07 02:54:18;;;;;;;1.45;1.08;;;;;;;12.73;64.96;98259.44;4965612;28;20066;-85
2022/04/07 02:56:47;;;;;;;1.95;1.20;;;;;;;12.74;64.87;98260.25;4972886;28;20046;-86
2022/04/07 02:59:14;;;;;;;3.10;1.50;;;;;;;12.65;64.19;98253.41;4970422;28;20082;-86
2022/04/07 03:01:41;;;;;;;2.08;1.23;;;;;;;12.64;64.85;98241.91;4961916;28;20058;-86
2022/04/07 03:04:07;;;;;;;2.08;1.25;;;;;;;12.67;64.81;98252.22;4955729;28;20196;-86
2022/04/07 03:06:34;;;;;;;1.50;1.10;;;;;;;12.68;64.42;98242.38;4981917;28;20043;-86
2022/04/07 03:09:02;;;;;;;2.30;1.38;;;;;;;12.66;64.67;98244.41;4957044;28;20042;-87
2022/04/07 03:11:28;;;;;;;1.90;1.15;;;;;;;12.66;64.92;98245.22;4956455;28;20051;-88
2022/04/07 03:13:55;;;;;;;3.88;1.50;;;;;;;12.66;64.74;98233.75;4964281;28;20050;-86
2022/04/07 03:16:22;;;;;;;3.55;1.15;;;;;;;12.62;64.31;98235.97;4982848;28;20051;-86
2022/04/07 03:18:49;;;;;;;2.78;1.30;;;;;;;12.66;64.36;98226.56;4975434;28;20359;-86
2022/04/07 03:21:16;;;;;;;2.08;1.30;;;;;;;12.61;64.52;98231.66;4945748;28;20370;-86
2022/04/07 03:23:44;;;;;;;1.85;1.27;;;;;;;12.61;64.63;98226.31;4965766;28;20050;-87
2022/04/07 03:26:11;;;;;;;2.60;1.30;;;;;;;12.61;64.64;98221.00;4951897;28;20054;-87
2022/04/07 03:28:39;;;;;;;2.80;1.25;;;;;;;12.62;64.49;98217.34;4956455;28;20046;-87
2022/04/07 03:31:05;;;;;;;3.40;1.30;;;;;;;12.62;64.73;98213.81;4949949;28;20042;-86
2022/04/07 03:33:32;;;;;;;4.40;1.25;;;;;;;12.61;64.55;98205.00;4952580;28;20055;-86
2022/04/07 03:36:01;;;;;;;1.20;1.10;;;;;;;12.59;64.30;98193.72;4970627;28;20049;-86
2022/04/07 03:38:28;;;;;;;2.67;1.50;;;;;;;12.59;64.61;98194.56;4992965;28;20652;-86
2022/04/07 03:40:55;;;;;;;3.13;1.20;;;;;;;12.58;64.56;98186.75;4965482;28;20047;-87
2022/04/07 03:43:21;;;;;;;3.67;1.15;;;;;;;12.59;64.92;98197.22;4990391;28;20490;-86
2022/04/07 03:45:49;;;;;;;4.40;2.40;;;;;;;12.59;64.77;98191.06;4973907;28;20053;-86
2022/04/07 03:48:15;;;;;;;2.47;1.50;;;;;;;12.58;64.76;98190.25;4971789;28;20065;-86
2022/04/07 03:50:43;;;;;;;1.83;1.15;;;;;;;12.58;64.82;98184.91;4966700;28;20061;-87
2022/04/07 03:53:10;;;;;;;2.83;1.25;;;;;;;12.55;65.06;98174.66;4956115;28;20097;-86
2022/04/07 03:55:39;;;;;;;1.83;1.25;;;;;;;12.55;64.97;98168.50;4951637;28;20055;-86
2022/04/07 03:58:10;;;;;;;2.45;1.17;;;;;;;12.50;64.68;98189.56;4935314;28;20046;-86
2022/04/07 04:00:39;;;;;;;1.60;1.00;;;;;;;12.50;64.96;98186.88;4963903;28;20042;-88
2022/04/07 04:03:07;;;;;;;2.35;1.10;;;;;;;12.50;64.84;98174.41;4916374;28;20481;-84
2022/04/07 04:05:36;;;;;;;2.00;1.17;;;;;;;12.51;65.03;98185.84;4959090;28;20493;-84
2022/04/07 04:08:05;;;;;;;1.77;1.20;;;;;;;12.49;65.03;98193.22;4973588;28;20066;-83
2022/04/07 04:10:37;;;;;;;3.03;0.98;;;;;;;12.31;64.88;98183.81;4956174;28;20048;-86
2022/04/07 04:13:04;;;;;;;1.20;1.10;;;;;;;12.41;65.12;98177.34;4970656;28;20042;-86
2022/04/07 04:15:32;;;;;;;2.13;1.10;;;;;;;12.44;65.10;98176.97;4969572;28;20097;-85
2022/04/07 04:17:59;;;;;;;2.20;1.25;;;;;;;12.44;65.27;98158.34;4955361;28;20108;-84
2022/04/07 04:20:25;;;;;;;1.80;1.30;;;;;;;12.46;65.15;98162.47;4944672;28;20108;-82
2022/04/07 04:22:52;;;;;;;1.20;1.10;;;;;;;12.46;65.13;98154.47;4961008;28;20126;-83
2022/04/07 04:25:19;;;;;;;2.70;1.23;;;;;;;12.44;65.26;98159.19;4949572;28;20047;-83
2022/04/07 04:27:46;;;;;;;1.75;1.20;;;;;;;12.44;65.17;98156.53;4966090;28;20053;-83
2022/04/07 04:30:17;;;;;;;1.92;0.90;;;;;;;12.44;65.25;98159.19;4947032;28;20561;-82
2022/04/07 04:32:46;;;;;;;1.30;0.95;;;;;;;12.45;65.18;98152.84;5001709;28;20050;-82
2022/04/07 04:35:13;;;;;;;1.95;1.20;;;;;;;12.44;65.04;98161.00;4984746;28;20113;-82
2022/04/07 04:37:40;;;;;;;2.80;1.25;;;;;;;12.44;64.83;98158.34;4972808;28;20055;-83
2022/04/07 04:40:07;;;;;;;1.73;1.48;;;;;;;12.45;64.90;98163.47;4976155;28;20046;-83
2022/04/07 04:42:34;;;;;;;3.97;1.52;;;;;;;12.50;64.52;98166.41;4976662;28;20053;-83
2022/04/07 04:45:01;;;;;;;5.72;1.30;;;;;;;12.44;64.52;98161.00;4950089;28;20201;-82
2022/04/07 04:47:28;;;;;;;3.10;1.75;;;;;;;12.43;64.86;98154.84;4977727;28;20458;-82
2022/04/07 04:49:56;;;;;;;5.72;1.73;;;;;;;12.43;64.72;98152.19;4959636;28;20100;-82
2022/04/07 04:52:22;;;;;;;1.65;1.13;;;;;;;12.42;64.71;98150.56;4982803;28;20453;-82
2022/04/07 04:54:49;;;;;;;2.65;1.60;;;;;;;12.41;64.44;98154.22;4968433;28;20061;-83
2022/04/07 04:57:16;;;;;;;2.70;1.35;;;;;;;12.42;64.46;98160.38;4966347;28;20057;-83
2022/04/07 04:59:42;;;;;;;2.95;1.10;;;;;;;12.43;64.28;98143.38;4972294;28;20041;-90
2022/04/07 05:02:09;;;;;;;2.65;1.25;;;;;;;12.38;64.16;98143.94;4968180;28;20050;-89
2022/04/07 05:04:37;;;;;;;3.80;1.08;;;;;;;12.35;64.53;98158.47;4971110;28;20495;-85
2022/04/07 05:07:04;;;;;;;2.20;1.33;;;;;;;12.38;64.59;98138.63;4972739;28;20073;-89
2022/04/07 05:09:30;;;;;;;2.42;1.25;;;;;;;12.34;64.55;98138.19;4972938;28;20489;-89
2022/04/07 05:11:57;;;;;;;3.10;1.20;;;;;;;12.34;64.72;98140.84;4971136;28;20650;-89
2022/04/07 05:14:24;;;;;;;5.53;1.10;;;;;;;12.34;64.74;98127.53;4961385;28;20050;-89
2022/04/07 05:16:52;;;;;;;1.30;0.95;;;;;;;12.35;64.76;98133.69;4963091;28;20122;-89
2022/04/07 05:19:18;;;;;;;2.28;1.05;;;;;;;12.34;64.72;98129.38;4951046;28;20061;-88
2022/04/07 05:21:49;;;;;;;0.80;0.80;;;;;;;12.34;64.85;98127.53;4976057;28;20111;-89
2022/04/07 05:24:17;;;;;;;2.28;1.10;;;;;;;12.34;64.73;98116.09;4975582;28;20121;-89
2022/04/07 05:26:45;;;;;;;2.67;0.90;;;;;;;12.34;64.83;98127.53;4979578;28;20047;-89
2022/04/07 05:29:12;;;;;;;2.22;1.10;;;;;;;12.33;64.62;98122.41;4957079;28;20477;-89
2022/04/07 05:31:39;;;;;;;1.23;0.85;;;;;;;12.35;64.44;98120.38;4969064;28;20051;-89
2022/04/07 05:34:06;;;;;;;3.95;1.30;;;;;;;12.33;64.70;98109.91;4962887;28;20097;-88
2022/04/07 05:36:33;;;;;;;1.80;0.98;;;;;;;12.35;64.69;98110.56;4947902;28;20053;-88
2022/04/07 05:39:00;;;;;;;1.42;1.00;;;;;;;12.35;64.92;98086.59;4966688;28;20042;-89
2022/04/07 05:41:27;;;;;;;1.80;1.10;;;;;;;12.34;64.96;98089.47;4969335;28;20047;-88
2022/04/07 05:43:53;;;;;;;2.35;1.15;;;;;;;12.35;64.59;98091.91;4972760;28;20522;-89
2022/04/07 05:46:24;;;;;;;1.60;0.95;;;;;;;12.38;64.48;98077.41;4978443;28;20078;-89
2022/04/07 05:48:51;;;;;;;3.60;1.02;;;;;;;12.41;64.79;98084.19;4974069;28;20047;-87
2022/04/07 05:51:18;;;;;;;2.67;0.85;;;;;;;12.41;64.50;98081.53;4971024;28;20505;-88
2022/04/07 05:53:44;;;;;;;1.98;0.80;;;;;;;12.41;64.24;98086.84;4976206;28;20066;-88
2022/04/07 05:56:11;;;;;;;2.05;0.70;;;;;;;12.41;64.35;98077.03;4974282;28;20054;-88
2022/04/07 05:58:38;;;;;;;1.00;0.80;;;;;;;12.43;64.35;98064.34;4974469;28;20056;-88
2022/04/07 06:01:04;;;;;;;3.22;0.93;;;;;;;12.43;64.39;98072.34;4986946;28;20051;-87
2022/04/07 06:03:31;;;;;;;1.00;0.70;;;;;;;12.40;64.16;98066.59;4972806;28;20070;-88
2022/04/07 06:05:58;;;;;;;2.53;0.70;;;;;;;12.41;64.38;98073.53;4983149;28;20249;-88
2022/04/07 06:08:29;;;;;;;2.53;1.42;;;;;;;12.42;64.29;98062.72;4950709;28;20062;-87
2022/04/07 06:10:55;;;;;;;2.50;1.23;;;;;;;12.44;64.49;98063.34;4950137;28;25466;-87
2022/04/07 06:13:22;;;;;;;2.92;1.45;;;;;;;12.46;64.02;98055.16;4966127;28;20046;-89
2022/04/07 06:15:49;;;;;;;2.63;1.20;;;;;;;12.42;63.93;98041.41;4970926;28;20136;-88
2022/04/07 06:18:16;;;;;;;2.78;1.40;;;;;;;12.42;64.09;98052.06;4968354;28;20097;-89
2022/04/07 06:20:46;;;;;;;3.60;1.40;;;;;;;12.39;64.06;98044.47;4979631;28;20580;-89
2022/04/07 06:23:13;;;;;;;2.38;0.80;;;;;;;12.38;64.09;98043.63;4979912;28;20098;-88
2022/04/07 06:25:40;;;;;;;3.92;0.95;;;;;;;12.41;63.40;98033.63;4958729;28;20145;-89
2022/04/07 06:28:07;;;;;;;0.65;0.52;;;;;;;12.36;63.84;98044.84;4973072;28;20047;-89
2022/04/07 06:30:33;;;;;;;2.33;1.10;;;;;;;12.35;63.71;98040.53;4972555;28;20105;-89
2022/04/07 06:33:00;;;;;;;2.03;0.95;;;;;;;12.35;64.14;98035.22;4969641;28;20046;-88
2022/04/07 06:35:27;;;;;;;1.30;1.05;;;;;;;12.43;63.53;98028.94;4967383;28;20101;-88
2022/04/07 06:37:58;;;;;;;3.30;0.88;;;;;;;12.33;63.83;98032.72;4969442;28;20043;-89
2022/04/07 06:40:27;;;;;;;3.13;0.60;;;;;;;12.33;63.81;98027.41;4984197;28;20043;-89
2022/04/07 06:42:55;;;;;;;1.85;0.70;;;;;;;12.32;63.87;98017.78;4966486;28;20046;-88
2022/04/07 06:45:27;;;;;;;2.53;0.73;;;;;;;12.25;63.62;98019.56;4984642;28;20047;-87
2022/04/07 06:47:55;;;;;;;0.50;0.50;;;;;;;12.30;63.73;98022.47;4953092;28;20046;-89
2022/04/07 06:50:26;;;;;;;0.98;0.60;;;;;;;12.29;63.59;97998.72;4973903;28;20061;-87
2022/04/07 06:52:54;;;;;;;1.58;0.90;;;;;;;12.32;63.72;98006.31;4973987;28;20039;-87
2022/04/07 06:55:22;;;;;;;2.72;1.10;;;;;;;12.27;63.57;97995.44;4977840;28;20518;-89
2022/04/07 06:57:52;;;;;;;1.40;1.02;;;;;;;12.26;63.80;97983.97;4977558;28;20088;-82
2022/04/07 07:00:20;;;;;;;3.67;1.40;;;;;;;12.26;64.03;97986.63;4996170;28;20054;-82
2022/04/07 07:02:52;;;;;;;2.78;0.90;;;;;;;12.27;63.56;97979.47;4961670;28;20043;-82
2022/04/07 07:05:24;;;;;;;2.08;1.20;;;;;;;12.21;63.83;97974.88;4965295;28;20047;-82
2022/04/07 07:07:51;;;;;;;2.13;1.10;;;;;;;12.25;63.90;97958.34;4990569;28;20039;-82
2022/04/07 07:10:22;;;;;;;1.85;1.60;;;;;;;12.24;63.90;97967.38;4971724;28;20088;-82
2022/04/07 07:13:18;;;;;;;1.73;1.00;;;;;;;12.12;64.09;97968.88;4979996;28;20097;-82
2022/04/07 07:15:52;;;;;;;1.20;0.60;;;;;;;12.22;63.88;97964.06;4934838;28;20046;-83
2022/04/07 07:18:18;;;;;;;2.05;0.75;;;;;;;12.22;63.83;97964.06;4970149;28;20043;-82
2022/04/07 07:20:46;;;;;;;0.93;0.60;;;;;;;12.22;63.83;97969.38;4969375;28;20158;-82
2022/04/07 07:23:13;;;;;;;0.88;0.68;;;;;;;12.24;63.73;97946.06;4974521;28;20151;-83
2022/04/07 07:25:39;;;;;;;3.13;1.20;;;;;;;12.23;64.08;97947.06;4968020;28;20043;-82
2022/04/07 07:28:09;;;;;;;1.23;1.13;;;;;;;12.25;64.22;97938.91;4947978;28;20062;-82
2022/04/07 07:30:36;;;;;;;1.35;1.25;;;;;;;12.29;64.03;97935.69;4979170;28;20039;-82
2022/04/07 07:33:03;;;;;;;0.63;0.60;;;;;;;12.30;64.19;97939.97;4966383;28;20042;-82
2022/04/07 07:35:29;;;;;;;2.75;0.82;;;;;;;12.32;64.31;97918.50;4987911;28;20512;-83
2022/04/07 07:38:01;;;;;;;0.65;0.60;;;;;;;12.30;64.18;97931.16;4973097;28;20049;-82
2022/04/07 07:40:32;;;;;;;1.77;0.60;;;;;;;12.31;64.05;97927.47;4985883;28;20046;-82
2022/04/07 07:43:01;;;;;;;4.63;0.75;;;;;;;12.30;63.84;97915.19;4948134;28;20082;-82
2022/04/07 07:45:31;;;;;;;1.23;0.57;;;;;;;12.29;64.02;97902.91;4972938;28;20047;-82
2022/04/07 07:48:31;;;;;;;1.63;0.60;;;;;;;12.24;64.07;97900.03;4988289;28;20054;-82
2022/04/07 07:50:58;;;;;;;3.58;1.20;;;;;;;12.28;63.93;97890.63;4976998;28;20046;-82
2022/04/07 07:53:25;;;;;;;1.70;0.77;;;;;;;12.28;64.19;97887.94;4968898;28;20058;-82
2022/04/07 07:55:53;;;;;;;2.45;0.70;;;;;;;12.29;64.13;97886.97;4962283;28;20097;-88
2022/04/07 07:58:22;;;;;;;0.50;0.50;;;;;;;12.28;64.13;97878.13;4979334;28;20693;-88
2022/04/07 08:00:48;;;;;;;2.65;0.57;;;;;;;12.28;64.12;97874.66;4951344;28;20394;-89
2022/04/07 08:03:15;;;;;;;1.13;0.70;;;;;;;12.30;63.91;97883.25;4968370;28;20082;-91
2022/04/07 08:05:42;;;;;;;0.65;0.52;;;;;;;12.27;64.20;97876.50;4951350;28;20051;-89
2022/04/07 08:08:11;;;;;;;1.33;0.60;;;;;;;12.30;64.24;97873.44;4987326;28;20057;-90
2022/04/07 08:10:37;;;;;;;0.88;0.70;;;;;;;12.31;64.10;97861.78;4972671;28;20638;-90
2022/04/07 08:13:04;;;;;;;0.95;0.75;;;;;;;12.30;63.95;97859.31;4970569;28;20054;-88
2022/04/07 08:15:32;;;;;;;1.00;0.40;;;;;;;12.32;64.18;97870.59;4981287;28;20130;-85
2022/04/07 08:17:58;;;;;;;1.02;0.50;;;;;;;12.30;64.33;97860.13;4970269;28;20105;-85
2022/04/07 08:20:25;;;;;;;0.75;0.75;;;;;;;12.30;64.29;97854.00;4981963;28;20067;-85
2022/04/07 08:22:52;;;;;;;1.00;0.88;;;;;;;12.32;64.22;97854.63;4965320;28;20134;-85
2022/04/07 08:25:19;;;;;;;3.88;0.80;;;;;;;12.33;64.20;97853.59;4978840;28;20055;-85
2022/04/07 08:27:47;;;;;;;2.55;1.15;;;;;;;12.32;64.14;97851.97;4966129;28;20520;-84
2022/04/07 08:30:13;;;;;;;2.72;1.10;;;;;;;12.33;64.40;97842.94;4953302;28;20485;-85
2022/04/07 08:32:40;;;;;;;0.68;0.55;;;;;;;12.33;64.24;97821.66;4972004;28;20043;-85
2022/04/07 08:35:09;;;;;;;3.05;0.55;;;;;;;12.34;64.39;97825.97;4956881;28;20058;-83
2022/04/07 08:37:37;;;;;;;1.98;0.50;;;;;;;12.38;64.36;97821.88;4967731;28;20093;-85
2022/04/07 08:40:07;;;;;;;0.70;0.70;;;;;;;12.36;64.22;97831.91;4970197;28;20096;-85
2022/04/07 08:42:35;;;;;;;1.02;0.70;;;;;;;12.34;64.70;97813.50;4972600;28;20721;-85
2022/04/07 08:45:02;;;;;;;2.25;1.55;;;;;;;12.34;64.38;97804.69;4961929;28;20043;-85
2022/04/07 08:47:33;;;;;;;2.80;1.00;;;;;;;12.35;64.50;97803.66;4981449;28;21321;-85
2022/04/07 08:50:02;;;;;;;4.10;1.60;;;;;;;12.34;64.44;97799.38;4959067;28;20042;-85
2022/04/07 08:52:29;;;;;;;3.83;1.58;;;;;;;12.36;64.49;97799.97;4964869;28;20059;-83
2022/04/07 08:54:56;;;;;;;3.83;1.40;;;;;;;12.32;64.63;97801.41;4950963;28;20057;-85
2022/04/07 08:57:23;;;;;;;5.85;1.33;;;;;;;12.30;64.77;97798.09;4970815;28;20047;-85
2022/04/07 08:59:50;;;;;;;3.65;1.15;;;;;;;12.29;64.84;97805.28;4967882;28;21228;-84
2022/04/07 09:02:17;;;;;;;5.47;1.25;;;;;;;12.29;65.22;97805.28;4985616;28;20057;-85
2022/04/07 09:04:44;;;;;;;2.20;1.00;;;;;;;12.30;65.14;97814.88;4979982;28;20073;-85
2022/04/07 09:07:14;;;;;;;1.02;0.60;;;;;;;12.25;65.40;97801.34;4979325;28;20452;-86
2022/04/07 09:09:41;;;;;;;1.75;1.00;;;;;;;12.25;65.62;97813.84;4982703;28;20043;-85
2022/04/07 09:12:08;;;;;;;2.10;0.90;;;;;;;12.24;66.13;97809.56;4965732;28;20042;-85
2022/04/07 09:14:36;;;;;;;0.80;0.50;;;;;;;12.29;66.25;97802.63;4964337;28;20050;-85
2022/04/07 09:17:03;;;;;;;2.13;0.90;;;;;;;12.26;66.40;97796.84;4961571;28;20052;-85
2022/04/07 09:19:30;;;;;;;2.80;1.05;;;;;;;12.24;66.91;97798.91;4990630;28;20049;-85
2022/04/07 09:22:11;;;;;;;3.17;1.45;;;;;;;12.11;67.53;97800.47;4977551;28;20058;-86
2022/04/07 09:24:39;;;;;;;1.55;1.15;;;;;;;12.22;67.34;97793.75;4936023;28;20057;-86
2022/04/07 09:27:10;;;;;;;1.75;1.15;;;;;;;12.19;67.24;97804.81;4965698;28;20114;-85
2022/04/07 09:29:42;;;;;;;1.55;0.80;;;;;;;12.20;67.12;97794.97;4972991;28;20613;-85
2022/04/07 09:32:26;;;;;;;2.70;1.10;;;;;;;12.11;67.38;97787.16;4984572;28;20050;-85
2022/04/07 09:34:57;;;;;;;9.45;6.63;;;;;;;12.22;67.35;97777.81;4953018;28;20130;-86
2022/04/07 09:37:25;;;;;;;5.82;5.13;;;;;;;12.23;67.07;97760.81;4953190;28;20055;-86
2022/04/07 09:40:10;;;;;;;2.30;1.92;;;;;;;12.14;67.24;97764.66;4959854;28;20046;-86
2022/04/07 09:42:37;;;;;;;2.50;2.20;;;;;;;12.24;67.09;97764.31;4932014;28;20062;-85
2022/04/07 09:45:13;;;;;;;2.42;1.10;;;;;;;12.20;67.25;97763.06;4981294;28;20081;-86
2022/04/07 09:47:45;;;;;;;1.17;0.50;;;;;;;12.27;67.10;97737.31;4998322;28;20405;-86
2022/04/07 09:50:29;;;;;;;2.80;0.80;;;;;;;12.16;66.79;97741.31;4975667;28;20053;-86
2022/04/07 09:53:03;;;;;;;1.80;0.60;;;;;;;12.24;66.58;97748.34;4978554;28;20066;-86
2022/04/07 09:55:34;;;;;;;0.93;0.70;;;;;;;12.24;67.09;97732.38;4994633;28;20098;-86
2022/04/07 09:58:06;;;;;;;1.15;0.93;;;;;;;12.22;66.52;97727.25;4974172;28;20350;-85
2022/04/07 10:00:33;;;;;;;0.80;0.70;;;;;;;12.25;66.65;97723.38;4967589;28;20046;-86
2022/04/07 10:03:02;;;;;;;1.38;0.65;;;;;;;12.25;66.66;97718.03;4964608;28;20045;-85
2022/04/07 10:05:29;;;;;;;0.57;0.55;;;;;;;12.25;66.66;97713.53;4983151;28;20059;-84
2022/04/07 10:08:00;;;;;;;2.13;1.08;;;;;;;12.23;67.07;97718.22;4965624;28;20058;-86
2022/04/07 10:10:26;;;;;;;1.77;1.10;;;;;;;12.26;67.24;97699.22;4981992;28;20048;-86
2022/04/07 10:12:55;;;;;;;2.88;1.10;;;;;;;12.25;66.98;97700.22;4966895;28;20050;-85
2022/04/07 10:15:23;;;;;;;3.28;2.60;;;;;;;12.24;67.19;97684.47;4986596;28;20489;-86
2022/04/07 10:17:49;;;;;;;1.30;0.90;;;;;;;12.24;66.88;97668.53;4975736;28;20042;-86
2022/04/07 10:20:26;;;;;;;1.55;0.77;;;;;;;12.24;67.02;97681.81;4975243;28;20062;-85
2022/04/07 10:23:13;;;;;;;1.33;0.73;;;;;;;12.25;67.02;97667.50;4976421;28;20410;-86
2022/04/07 10:25:45;;;;;;;1.05;0.80;;;;;;;12.28;67.27;97651.13;4948405;28;20050;-85
2022/04/07 10:28:11;;;;;;;1.20;0.60;;;;;;;12.31;66.95;97638.25;4954511;28;24530;-86
2022/04/07 10:30:47;;;;;;;0.50;0.50;;;;;;;12.24;67.08;97639.25;4965584;28;20073;-86
2022/04/07 10:33:32;;;;;;;0.73;0.50;;;;;;;12.22;67.43;97638.63;4959145;28;20126;-85
2022/04/07 10:36:18;;;;;;;1.23;0.70;;;;;;;12.21;67.51;97632.47;4964082;28;20054;-85
2022/04/07 10:38:47;;;;;;;0.40;0.40;;;;;;;12.35;67.23;97612.03;4976358;28;20057;-85
2022/04/07 10:41:36;;;;;;;2.75;0.70;;;;;;;12.26;67.25;97605.25;4969955;28;20150;-85
2022/04/07 10:44:24;;;;;;;0.40;0.40;;;;;;;12.30;67.23;97619.81;4942497;28;20053;-86
2022/04/07 10:47:09;;;;;;;1.50;0.60;;;;;;;12.28;67.44;97585.41;4965369;28;20052;-86
2022/04/07 10:49:45;;;;;;;1.98;0.55;;;;;;;12.35;67.27;97599.56;4943338;28;20136;-85
2022/04/07 10:52:25;;;;;;;0.38;0.38;;;;;;;12.29;67.10;97595.03;4976590;28;20382;-86
2022/04/07 10:55:10;;;;;;;0.63;0.50;;;;;;;12.26;66.98;97595.47;4954663;28;20054;-86
2022/04/07 10:58:09;;;;;;;1.27;0.40;;;;;;;12.24;67.67;97596.69;4963994;28;20087;-84
2022/04/07 11:00:39;;;;;;;1.80;1.20;;;;;;;12.36;67.11;97573.75;4925614;28;20050;-86
2022/04/07 11:03:13;;;;;;;4.88;1.25;;;;;;;12.34;66.59;97597.91;4921568;28;20162;-86
2022/04/07 11:05:59;;;;;;;2.28;0.77;;;;;;;12.27;67.13;97530.56;4943875;28;20067;-85
2022/04/07 11:08:26;;;;;;;1.35;0.60;;;;;;;12.36;66.74;97571.94;4925175;28;20059;-84
2022/04/07 11:10:55;;;;;;;0.60;0.60;;;;;;;12.38;66.88;97564.53;4944733;28;20514;-83
2022/04/07 11:13:42;;;;;;;0.70;0.50;;;;;;;12.30;66.92;97559.41;4941695;28;20047;-84
2022/04/07 11:16:16;;;;;;;0.80;0.55;;;;;;;12.42;66.27;97535.69;4927044;28;20599;-83
2022/04/07 11:19:16;;;;;;;1.23;0.82;;;;;;;12.34;66.89;97533.25;4895301;28;20043;-83
2022/04/07 11:21:45;;;;;;;1.63;1.02;;;;;;;12.44;66.62;97543.47;4919891;28;20057;-83
2022/04/07 11:24:23;;;;;;;2.22;0.98;;;;;;;12.40;66.37;97532.41;4942154;28;20047;-84
2022/04/07 11:26:54;;;;;;;1.38;0.80;;;;;;;12.45;66.55;97516.66;4927967;28;20574;-83
2022/04/07 11:29:34;;;;;;;1.20;0.73;;;;;;;12.43;66.65;97510.69;4939889;28;20055;-83
2022/04/07 11:32:08;;;;;;;0.88;0.60;;;;;;;12.56;65.36;97513.34;4926134;28;20051;-82
2022/04/07 11:34:40;;;;;;;6.63;0.63;;;;;;;12.58;65.93;97498.00;4943725;28;20497;-83
2022/04/07 11:37:16;;;;;;;1.52;1.20;;;;;;;12.55;66.08;97506.41;4972425;28;20122;-83
2022/04/07 11:39:50;;;;;;;2.97;1.50;;;;;;;12.50;66.04;97492.09;4969041;28;20055;-83
2022/04/07 11:42:20;;;;;;;1.13;0.70;;;;;;;12.55;65.83;97497.59;4958771;28;20490;-83
2022/04/07 11:44:47;;;;;;;0.93;0.63;;;;;;;12.54;66.44;97506.59;4976262;28;20051;-83
2022/04/07 11:47:24;;;;;;;5.32;2.35;;;;;;;12.55;66.03;97510.91;4972706;28;20050;-82
2022/04/07 11:49:51;;;;;;;1.75;0.75;;;;;;;12.66;65.31;97512.13;4964561;28;20149;-83